Flight Track Log - Related Links

Times and Time Zones

All times are in EDT time to prevent confusion due to time zone crossing. See the SWA605 flight status page for this flight to view local times or setup timezone preferences in your user account.

Time Position Orientation Groundspeed Altitude Reporting Facility
EDT Latitude Longitude Course Direction KTS MPH feet Rate Location/Type
Wed 06:05:22 PM 39.3000 -94.7333 159° South 119 137 1,700  Level Kansas City TRACON
Wed 06:06:04 PM 39.2667 -94.7167 159° South 160 184 2,900 1,625 Climbing Kansas City TRACON
Wed 06:06:58 PM 39.2167 -94.7167 180° South 223 257 4,300 1,944 Climbing Kansas City TRACON
Wed 06:07:52 PM 39.2000 -94.6333 104° East 280 322 6,400 2,494 Climbing Kansas City TRACON
Wed 06:08:15 PM 39.2042 -94.5950 82° East 276 318 7,500 2,965 Climbing Kansas City Center
Wed 06:09:17 PM 39.2308 -94.4969 71° East 305 351 10,600 2,710 Climbing Kansas City Center
Wed 06:10:19 PM 39.2683 -94.3625 70° East 364 419 13,100 2,468 Climbing Kansas City Center
Wed 06:11:21 PM 39.3033 -94.2403 70° East 379 436 15,700 2,806 Climbing Kansas City Center
Wed 06:12:23 PM 39.3478 -94.0878 69° East 404 465 18,900 2,903 Climbing Kansas City Center
Wed 06:13:25 PM 39.3850 -93.9544 70° East 412 474 21,700 2,710 Climbing Kansas City Center
Wed 06:14:27 PM 39.4053 -93.7883 81° East 418 481 24,500 2,226 Climbing Kansas City Center
Wed 06:15:29 PM 39.4278 -93.6428 79° East 429 494 26,300 1,742 Climbing Kansas City Center
Wed 06:16:31 PM 39.4456 -93.4850 82° East 446 513 28,100 1,645 Climbing Kansas City Center
Wed 06:17:33 PM 39.4656 -93.3250 81° East 452 520 29,700 1,403 Climbing Kansas City Center
Wed 06:18:35 PM 39.4844 -93.1614 81° East 462 532 31,000 1,403 Climbing Kansas City Center
Wed 06:19:37 PM 39.5064 -92.9550 82° East 483 556 32,600 1,403 Climbing Kansas City Center
Wed 06:20:39 PM 39.5267 -92.7828 81° East 489 563 33,900 1,403 Climbing Kansas City Center
Wed 06:21:41 PM 39.5472 -92.6094 81° East 492 566 35,500 1,500 Climbing Kansas City Center
Wed 06:22:43 PM 39.5656 -92.4400 82° East 488 562 37,000 726 Climbing Kansas City Center
Wed 06:23:45 PM 39.5867 -92.2467 82° East 469 540 37,000  Level Kansas City Center
Wed 06:24:47 PM 39.6047 -92.0836 82° East 463 533 37,000  Level Kansas City Center
Wed 06:25:49 PM 39.6219 -91.9192 82° East 464 534 37,000  Level Kansas City Center
Wed 06:26:51 PM 39.6406 -91.7525 82° East 470 541 37,000  Level Kansas City Center
Wed 06:27:53 PM 39.6572 -91.5897 82° East 465 535 37,000  Level Kansas City Center
Wed 06:28:55 PM 39.6772 -91.3922 82° East 465 535 37,000  Level Kansas City Center
Wed 06:29:57 PM 39.6933 -91.2342 82° East 467 537 37,000  Level Kansas City Center
Wed 06:30:59 PM 39.7117 -91.0656 82° East 469 540 37,000  Level Kansas City Center
Wed 06:32:01 PM 39.7275 -90.8969 83° East 471 542 37,000  Level Kansas City Center
Wed 06:33:03 PM 39.7464 -90.6947 83° East 471 542 37,000  Level Kansas City Center
Wed 06:34:05 PM 39.7614 -90.5381 83° East 469 540 37,000  Level Kansas City Center
Wed 06:35:07 PM 39.7775 -90.3717 83° East 468 539 37,000  Level Kansas City Center
Wed 06:36:09 PM 39.7925 -90.2061 83° East 465 535 37,000  Level Kansas City Center
Wed 06:37:11 PM 39.8106 -90.0075 83° East 464 534 37,000  Level Kansas City Center
Wed 06:38:13 PM 39.8247 -89.8425 84° East 462 532 37,000  Level Kansas City Center
Wed 06:39:15 PM 39.8392 -89.6778 83° East 462 532 37,000  Level Kansas City Center
Wed 06:40:17 PM 39.8414 -89.5108 89° East 463 533 37,000 484 Level Kansas City Center
Wed 06:41:19 PM 39.8417 -89.3389 90° East 472 543 38,000 968 Climbing Kansas City Center
Wed 06:42:21 PM 39.8425 -89.1692 90° East 473 544 39,000 484 Climbing Kansas City Center
Wed 06:43:23 PM 39.8422 -88.9675 90° East 469 540 39,000  Level Kansas City Center
Wed 06:44:25 PM 39.8461 -88.7992 88° East 467 537 39,000  Level Kansas City Center
Wed 06:45:27 PM 39.8578 -88.6311 85° East 467 537 39,000  Level Kansas City Center
Wed 06:46:29 PM 39.8667 -88.4647 86° East 463 533 39,000  Level Kansas City Center
Wed 06:47:30 PM 39.8739 -88.2969 87° East 465 535 39,000  Level Kansas City Center
Wed 06:48:32 PM 39.8842 -88.1053 86° East 468 539 39,000  Level Kansas City Center
Wed 06:49:34 PM 39.8928 -87.9350 86° East 469 540 39,000  Level Kansas City Center
Wed 06:50:36 PM 39.9003 -87.7650 87° East 469 540 39,000  Level Kansas City Center
Wed 06:51:38 PM 39.9081 -87.5944 87° East 468 539 39,000  Level Kansas City Center
Wed 06:52:51 PM 39.9164 -87.3994 87° East 462 532 39,000  Level Indianapolis Center
Wed 06:53:53 PM 39.9253 -87.2008 87° East 458 527 39,000  Level Indianapolis Center
Wed 06:54:55 PM 39.9319 -87.0386 87° East 452 520 39,000  Level Indianapolis Center
Wed 06:55:57 PM 39.9386 -86.8764 87° East 450 518 39,000  Level Indianapolis Center
Wed 06:56:59 PM 39.9444 -86.7128 87° East 453 521 39,000  Level Indianapolis Center
Wed 06:58:01 PM 39.9503 -86.5503 87° East 449 517 39,000  Level Indianapolis Center
Wed 06:59:03 PM 39.9567 -86.3869 87° East 448 516 39,000  Level Indianapolis Center
Wed 07:00:05 PM 39.9625 -86.2228 87° East 447 514 39,000  Level Indianapolis Center
Wed 07:01:07 PM 39.9681 -86.0592 87° East 448 516 39,000  Level Indianapolis Center
Wed 07:02:09 PM 39.9736 -85.8647 88° East 447 514 39,000  Level Indianapolis Center
Wed 07:03:11 PM 39.9783 -85.7028 88° East 447 514 39,000  Level Indianapolis Center
Wed 07:04:13 PM 39.9817 -85.5408 88° East 447 514 39,000  Level Indianapolis Center
Wed 07:05:15 PM 39.9867 -85.3786 88° East 449 517 39,000  Level Indianapolis Center
Wed 07:06:17 PM 39.9917 -85.2153 88° East 451 519 39,000  Level Indianapolis Center
Wed 07:07:19 PM 39.9950 -85.0500 88° East 455 524 39,000  Level Indianapolis Center
Wed 07:08:21 PM 39.9981 -84.8622 89° East 456 525 39,000  Level Indianapolis Center
Wed 07:09:23 PM 40.0022 -84.6964 88° East 455 524 39,000  Level Indianapolis Center
Wed 07:10:25 PM 40.0064 -84.5322 88° East 450 518 39,000  Level Indianapolis Center
Wed 07:11:27 PM 40.0097 -84.3644 88° East 457 526 39,000  Level Indianapolis Center
Wed 07:12:29 PM 40.0111 -84.1981 89° East 456 525 39,000  Level Indianapolis Center
Wed 07:13:31 PM 40.0144 -84.0053 89° East 453 521 39,000  Level Indianapolis Center
Wed 07:14:33 PM 40.0161 -83.8417 89° East 447 514 39,000  Level Indianapolis Center
Wed 07:15:35 PM 40.0186 -83.6792 89° East 443 510 39,000  Level Indianapolis Center
Wed 07:16:37 PM 40.0211 -83.5169 89° East 438 504 39,000  Level Indianapolis Center
Wed 07:17:39 PM 40.0219 -83.3531 90° East 441 507 39,000  Level Indianapolis Center
Wed 07:18:41 PM 40.0236 -83.1900 89° East 441 507 39,000  Level Indianapolis Center
Wed 07:19:43 PM 40.0244 -83.0261 90° East 444 511 39,000  Level Indianapolis Center
Wed 07:20:45 PM 40.0253 -82.8633 90° East 445 512 39,000  Level Indianapolis Center
Wed 07:21:47 PM 40.0267 -82.7000 89° East 445 512 39,000  Level Indianapolis Center
Wed 07:22:48 PM 40.0272 -82.5375 90° East 445 512 39,000  Level Indianapolis Center
Wed 07:23:50 PM 40.0267 -82.3733 90° East 446 513 39,000  Level Indianapolis Center
Wed 07:24:52 PM 40.0261 -82.1833 90° East 446 513 39,000  Level Indianapolis Center
Wed 07:25:54 PM 40.0264 -82.0186 90° East 450 518 39,000  Level Indianapolis Center
Wed 07:26:56 PM 40.0253 -81.8531 90° East 452 520 39,000  Level Indianapolis Center
Wed 07:27:58 PM 40.0244 -81.7036 90° East 450 518 39,000  Level Indianapolis Center
Wed 07:28:59 PM 40.0228 -81.5122 91° East 450 518 39,000  Level Indianapolis Center
Wed 07:30:01 PM 40.0219 -81.3492 90° East 449 517 39,000  Level Indianapolis Center
Wed 07:31:03 PM 40.0206 -81.1858 91° East 448 516 39,000  Level Indianapolis Center
Wed 07:32:05 PM 40.0072 -81.0244 96° East 449 517 39,000  Level Indianapolis Center
Wed 07:32:21 PM 40.0039 -80.9814 96° East 442 509 39,000  Level Cleveland Center
Wed 07:33:21 PM 39.9753 -80.8242 103° East 442 509 39,000  Level Cleveland Center
Wed 07:34:21 PM 39.9483 -80.6617 102° East 448 516 39,000 -350 Level Cleveland Center
Wed 07:35:21 PM 39.9211 -80.5044 103° East 448 516 38,300 -850 Descending Cleveland Center
Wed 07:36:21 PM 39.8919 -80.3450 103° East 448 516 37,300 -950 Descending Cleveland Center
Wed 07:37:21 PM 39.8642 -80.1828 103° East 448 516 36,400 -950 Descending Cleveland Center
Wed 07:38:21 PM 39.8344 -80.0261 104° East 448 516 35,400 -950 Descending Cleveland Center
Wed 07:39:21 PM 39.8086 -79.8669 102° East 448 516 34,500 -950 Descending Cleveland Center
Wed 07:40:21 PM 39.7783 -79.7078 104° East 448 516 33,500 -1,394 Descending Cleveland Center
Wed 07:41:43 PM 39.7189 -79.5086 111° Southeast 424 488 31,200 -2,014 Descending Washington Center
Wed 07:42:44 PM 39.6628 -79.3681 117° Southeast 424 488 28,700 -2,390 Descending Washington Center
Wed 07:43:41 PM 39.6003 -79.2383 122° Southeast 429 494 26,500 -1,641 Descending Washington Center
Wed 07:44:41 PM 39.5656 -79.0750 105° East 418 481 25,500 -1,041 Descending Washington Center
Wed 07:45:42 PM 39.5486 -78.9314 99° East 407 468 24,400 -1,041 Descending Washington Center
Wed 07:46:42 PM 39.5317 -78.7881 99° East 402 463 23,400 -1,008 Descending Washington Center
Wed 07:47:41 PM 39.5125 -78.6472 100° East 397 457 22,400 -1,210 Descending Washington Center
Wed 07:48:41 PM 39.4969 -78.5122 98° East 392 451 21,000 -1,736 Descending Washington Center
Wed 07:49:42 PM 39.4794 -78.3769 99° East 387 445 18,900 -2,182 Descending Washington Center
Wed 07:50:42 PM 39.4636 -78.2447 99° East 381 438 16,600 -1,736 Descending Washington Center
Wed 07:51:43 PM 39.4578 -78.1317 94° East 368 423 15,400 -793 Descending Washington Center
Wed 07:52:43 PM 39.4542 -77.9997 92° East 362 417 15,000 -200 Descending Washington Center
Wed 07:53:43 PM 39.4525 -77.8708 91° East 357 411 15,000 -101 Level Washington Center
Wed 07:54:42 PM 39.4508 -77.7417 91° East 357 411 14,800 -600 Descending Washington Center
Wed 07:55:43 PM 39.4486 -77.6181 91° East 352 405 13,800 -942 Descending Washington Center
Wed 07:56:43 PM 39.4467 -77.4942 91° East 347 399 12,900 -1,436 Descending Washington Center
Wed 07:57:40 PM 39.4500 -77.3667 88° East 335 386 11,000 -974 Descending Potomac TRACON
Wed 07:58:40 PM 39.4667 -77.2500 79° East 327 376 11,000 -150 Level Potomac TRACON
Wed 07:59:40 PM 39.4833 -77.1167 81° East 332 382 10,700 -496 Descending Potomac TRACON
Wed 08:00:41 PM 39.4833 -77.0167 90° East 302 348 10,000 -843 Descending Potomac TRACON
Wed 08:01:41 PM 39.5000 -76.9167 78° East 271 312 9,000 -992 Descending Potomac TRACON
Wed 08:02:42 PM 39.4833 -76.8167 102° East 263 303 8,000 -991 Descending Potomac TRACON
Wed 08:03:36 PM 39.4833 -76.7333 90° East 262 302 7,100 -1,000 Descending Potomac TRACON
Wed 08:04:36 PM 39.4667 -76.6500 104° East 262 302 6,100 -1,150 Descending Potomac TRACON
Wed 08:05:36 PM 39.4167 -76.5833 134° Southeast 252 290 4,800 -1,041 Descending Potomac TRACON
Wed 08:06:37 PM 39.3667 -76.5167 134° Southeast 247 284 4,000 -397 Descending Potomac TRACON
Wed 08:07:37 PM 39.3000 -76.4833 159° South 238 274 4,000 -500 Level Potomac TRACON
Wed 08:08:37 PM 39.2500 -76.4833 180° South 240 276 3,000 -700 Descending Potomac TRACON
Wed 08:09:37 PM 39.1833 -76.5167 201° Southwest 203 234 2,600 -550 Descending Potomac TRACON
Wed 08:10:37 PM 39.1500 -76.5500 218° Southwest 163 188 1,900 -500 Descending Potomac TRACON
Wed 08:11:37 PM 39.1333 -76.6000 247° West 139 160 1,600 -522 Descending Potomac TRACON
Wed 08:12:32 PM 39.1333 -76.6333 270° West 146 168 900 -764 Descending Potomac TRACON
Wed 08:14:00 PM 39.1667 -76.6667 280° West  Level FlightAware Approximate

Login

Don't have an account? Register now (free) for customized features, flight alerts, and more!